Time;durP1;ratioP1;P1;durP2;ratioP2;P2;SDS_P1;SDS_P2;PMS_P1;PMS_P2;Temp;Humidity;BMP_temperature;BMP_pressure;BME280_temperature;BME280_humidity;BME280_pressure;Samples;Min_cycle;Max_cycle;Signal;HPM_P1;HPM_P2
2022/04/11 00:00:44;;;;;;;185.53;60.47;;;;;;;;;;5098909;28;20560;-72
2022/04/11 00:03:13;;;;;;;194.47;64.70;;;;;;;;;;5098178;28;20852;-72
2022/04/11 00:05:41;;;;;;;160.63;58.80;;;;;;;;;;5095957;28;20749;-72
2022/04/11 00:08:09;;;;;;;165.77;60.00;;;;;;;;;;5098804;28;20917;-72
2022/04/11 00:10:36;;;;;;;172.03;62.77;;;;;;;;;;5098773;28;20440;-72
2022/04/11 00:13:04;;;;;;;166.80;58.77;;;;;;;;;;5098627;28;20448;-72
2022/04/11 00:15:33;;;;;;;164.50;57.00;;;;;;;;;;5097837;28;20541;-72
2022/04/11 00:18:02;;;;;;;173.17;65.57;;;;;;;;;;5099147;28;20459;-72
2022/04/11 00:20:31;;;;;;;176.03;59.80;;;;;;;;;;5098308;28;20471;-72
2022/04/11 00:22:59;;;;;;;189.60;64.37;;;;;;;;;;5098608;28;20448;-72
2022/04/11 00:25:27;;;;;;;191.57;60.47;;;;;;;;;;5097972;28;20848;-72
2022/04/11 00:27:55;;;;;;;195.07;62.30;;;;;;;;;;5096800;28;20486;-72
2022/04/11 00:30:22;;;;;;;199.80;61.67;;;;;;;;;;5098836;28;20478;-72
2022/04/11 00:32:50;;;;;;;198.57;62.33;;;;;;;;;;5097689;28;20895;-72
2022/04/11 00:35:18;;;;;;;177.67;58.70;;;;;;;;;;5098464;28;20518;-72
2022/04/11 00:37:47;;;;;;;198.77;64.87;;;;;;;;;;5098756;28;20452;-72
2022/04/11 00:40:15;;;;;;;205.80;67.00;;;;;;;;;;5093089;28;20484;-72
2022/04/11 00:42:43;;;;;;;190.90;60.70;;;;;;;;;;5078141;28;20452;-72
2022/04/11 00:45:11;;;;;;;191.13;58.60;;;;;;;;;;5078232;28;20464;-72
2022/04/11 00:47:38;;;;;;;201.07;64.37;;;;;;;;;;5086331;28;20444;-72
2022/04/11 00:50:07;;;;;;;206.60;65.67;;;;;;;;;;5091818;28;20459;-72
2022/04/11 00:52:38;;;;;;;202.07;63.17;;;;;;;;;;5078120;28;20562;-72
2022/04/11 00:55:16;;;;;;;193.47;62.20;;;;;;;;;;5077908;28;20547;-73
2022/04/11 00:57:47;;;;;;;202.53;61.50;;;;;;;;;;5078734;28;20712;-72
2022/04/11 01:00:19;;;;;;;191.47;61.10;;;;;;;;;;5078116;28;20484;-72
2022/04/11 01:02:51;;;;;;;172.70;58.63;;;;;;;;;;5085168;28;20456;-72
2022/04/11 01:05:22;;;;;;;178.03;58.17;;;;;;;;;;5098319;28;20451;-72
2022/04/11 01:07:51;;;;;;;186.70;57.80;;;;;;;;;;5098614;28;20451;-72
2022/04/11 01:10:20;;;;;;;209.17;63.10;;;;;;;;;;5096713;28;20906;-73
2022/04/11 01:12:48;;;;;;;177.73;56.53;;;;;;;;;;5098515;28;20460;-73
2022/04/11 01:15:16;;;;;;;198.60;58.27;;;;;;;;;;5095293;28;20471;-72
2022/04/11 01:17:44;;;;;;;202.40;62.00;;;;;;;;;;5093507;28;20456;-71
2022/04/11 01:20:19;;;;;;;206.50;61.13;;;;;;;;;;5092680;28;20464;-73
2022/04/11 01:22:48;;;;;;;211.60;64.00;;;;;;;;;;5098053;28;20451;-72
2022/04/11 01:25:17;;;;;;;199.20;63.30;;;;;;;;;;5097206;28;20809;-72
2022/04/11 01:27:45;;;;;;;204.53;62.93;;;;;;;;;;5097588;28;20459;-72
2022/04/11 01:30:14;;;;;;;189.37;60.33;;;;;;;;;;5098379;28;20724;-72
2022/04/11 01:32:43;;;;;;;212.80;62.90;;;;;;;;;;5096658;28;20516;-72
2022/04/11 01:35:19;;;;;;;208.00;64.70;;;;;;;;;;5097782;28;20848;-73
2022/04/11 01:37:48;;;;;;;223.67;63.70;;;;;;;;;;5098028;28;20701;-73
2022/04/11 01:40:15;;;;;;;211.97;62.87;;;;;;;;;;5097843;28;20774;-73
2022/04/11 01:42:44;;;;;;;226.20;63.77;;;;;;;;;;5097610;28;20454;-73
2022/04/11 01:45:12;;;;;;;208.70;60.57;;;;;;;;;;5098121;28;20460;-73
2022/04/11 01:47:40;;;;;;;210.90;59.90;;;;;;;;;;5096773;28;20882;-73
2022/04/11 01:50:08;;;;;;;220.30;64.50;;;;;;;;;;5097054;28;20471;-72
2022/04/11 01:52:36;;;;;;;230.00;65.63;;;;;;;;;;5097155;28;20799;-71
2022/04/11 01:55:06;;;;;;;215.13;62.27;;;;;;;;;;5097423;28;20501;-72
2022/04/11 01:57:35;;;;;;;218.30;62.80;;;;;;;;;;5097606;28;20452;-73
2022/04/11 02:00:04;;;;;;;217.20;62.77;;;;;;;;;;5096882;28;20450;-72
2022/04/11 02:02:32;;;;;;;215.67;60.77;;;;;;;;;;5097552;28;20495;-72
2022/04/11 02:05:00;;;;;;;216.87;59.50;;;;;;;;;;5097784;28;20520;-73
2022/04/11 02:07:27;;;;;;;228.07;63.30;;;;;;;;;;5097425;28;20452;-72
2022/04/11 02:09:55;;;;;;;230.97;62.37;;;;;;;;;;5096513;28;20458;-72
2022/04/11 02:12:24;;;;;;;247.03;65.47;;;;;;;;;;5088403;28;20445;-72
2022/04/11 02:14:52;;;;;;;228.40;63.27;;;;;;;;;;5096111;28;20459;-72
2022/04/11 02:17:20;;;;;;;238.48;65.60;;;;;;;;;;5091463;28;20919;-73
2022/04/11 02:19:48;;;;;;;251.00;65.38;;;;;;;;;;5089144;28;20251;-73
2022/04/11 02:22:16;;;;;;;230.30;63.40;;;;;;;;;;5080563;28;20229;-73
2022/04/11 02:24:47;;;;;;;250.43;66.73;;;;;;;;;;5095000;28;20448;-73
2022/04/11 02:27:14;;;;;;;242.77;65.60;;;;;;;;;;5097328;28;20598;-72
2022/04/11 02:29:43;;;;;;;237.37;64.10;;;;;;;;;;5096866;28;20463;-72
2022/04/11 02:32:11;;;;;;;221.63;62.20;;;;;;;;;;5097169;28;20459;-72
2022/04/11 02:34:39;;;;;;;235.10;63.20;;;;;;;;;;5096152;28;20546;-72
2022/04/11 02:37:07;;;;;;;232.03;63.93;;;;;;;;;;5096641;28;20495;-72
2022/04/11 02:39:35;;;;;;;231.83;62.70;;;;;;;;;;5097069;28;20722;-73
2022/04/11 02:42:06;;;;;;;225.53;63.27;;;;;;;;;;5096748;28;20488;-73
2022/04/11 02:44:34;;;;;;;221.57;59.83;;;;;;;;;;5097072;28;20447;-72
2022/04/11 02:47:03;;;;;;;216.27;62.53;;;;;;;;;;5097142;28;20459;-73
2022/04/11 02:49:31;;;;;;;220.13;60.80;;;;;;;;;;5096760;28;20891;-72
2022/04/11 02:51:58;;;;;;;194.23;58.43;;;;;;;;;;5096706;28;20524;-72
2022/04/11 02:54:26;;;;;;;225.27;62.00;;;;;;;;;;5096330;28;20455;-72
2022/04/11 02:56:54;;;;;;;236.43;61.93;;;;;;;;;;5096625;28;20456;-72
2022/04/11 02:59:23;;;;;;;241.87;65.70;;;;;;;;;;5096470;28;20801;-72
2022/04/11 03:01:51;;;;;;;235.20;63.70;;;;;;;;;;5096153;28;20779;-72
2022/04/11 03:04:22;;;;;;;221.07;60.27;;;;;;;;;;5096416;28;20530;-72
2022/04/11 03:06:50;;;;;;;214.60;59.55;;;;;;;;;;5096675;28;20466;-72
2022/04/11 03:09:18;;;;;;;225.93;61.60;;;;;;;;;;5095477;28;20670;-72
2022/04/11 03:11:46;;;;;;;241.10;65.57;;;;;;;;;;5095928;28;20494;-72
2022/04/11 03:14:13;;;;;;;212.57;62.28;;;;;;;;;;5096458;28;20447;-72
2022/04/11 03:16:41;;;;;;;249.63;64.57;;;;;;;;;;5095207;28;20218;-72
2022/04/11 03:19:09;;;;;;;259.85;69.32;;;;;;;;;;5079239;28;20548;-72
2022/04/11 03:21:38;;;;;;;254.77;66.63;;;;;;;;;;5078523;28;20244;-72
2022/04/11 03:24:09;;;;;;;239.47;63.77;;;;;;;;;;5096959;28;20202;-72
2022/04/11 03:26:43;;;;;;;232.23;62.17;;;;;;;;;;5096067;28;20456;-73
2022/04/11 03:29:11;;;;;;;246.60;68.90;;;;;;;;;;5083108;28;20771;-73
2022/04/11 03:31:38;;;;;;;254.02;69.85;;;;;;;;;;5096851;28;20498;-73
2022/04/11 03:34:07;;;;;;;250.17;66.67;;;;;;;;;;5099431;28;20270;-73
2022/04/11 03:36:34;;;;;;;238.47;63.20;;;;;;;;;;5100037;28;20455;-73
2022/04/11 03:39:03;;;;;;;234.27;62.78;;;;;;;;;;5099373;28;20454;-73
2022/04/11 03:41:32;;;;;;;253.13;68.13;;;;;;;;;;5099941;28;20230;-73
2022/04/11 03:44:00;;;;;;;239.10;63.17;;;;;;;;;;5094310;28;20190;-72
2022/04/11 03:46:28;;;;;;;268.42;70.40;;;;;;;;;;5099216;28;20469;-72
2022/04/11 03:51:45;;;;;;;212.03;59.97;;;;;;;;;;5097064;28;21276;-73
2022/04/11 03:54:15;;;;;;;242.93;65.80;;;;;;;;;;5099933;28;20463;-73
2022/04/11 03:56:42;;;;;;;251.47;66.83;;;;;;;;;;5099918;28;20267;-73
2022/04/11 03:59:13;;;;;;;264.63;69.07;;;;;;;;;;5099855;28;20453;-73
2022/04/11 04:01:41;;;;;;;261.30;68.17;;;;;;;;;;5099509;28;20742;-73
2022/04/11 04:04:10;;;;;;;246.37;64.40;;;;;;;;;;5099404;28;20457;-72
2022/04/11 04:06:38;;;;;;;245.43;63.30;;;;;;;;;;5099540;28;20548;-71
2022/04/11 04:09:05;;;;;;;253.60;67.57;;;;;;;;;;5099815;28;20244;-73
2022/04/11 04:11:37;;;;;;;227.40;63.30;;;;;;;;;;5098825;28;20447;-73
2022/04/11 04:14:05;;;;;;;242.60;63.80;;;;;;;;;;5099945;28;20570;-73
2022/04/11 04:16:40;;;;;;;246.15;65.40;;;;;;;;;;5100335;28;20467;-73
2022/04/11 04:19:09;;;;;;;258.70;68.17;;;;;;;;;;5099380;28;20213;-73
2022/04/11 04:21:41;;;;;;;244.67;67.30;;;;;;;;;;5100879;28;20483;-73
2022/04/11 04:26:58;;;;;;;196.57;60.33;;;;;;;;;;5098389;28;20884;-73
2022/04/11 04:29:26;;;;;;;237.48;64.85;;;;;;;;;;5098883;28;20756;-72
2022/04/11 04:31:54;;;;;;;240.05;63.67;;;;;;;;;;5098668;28;20331;-73
2022/04/11 04:34:22;;;;;;;256.10;66.10;;;;;;;;;;5097419;28;20198;-72
2022/04/11 04:36:49;;;;;;;250.80;66.43;;;;;;;;;;5098034;28;20436;-73
2022/04/11 04:39:19;;;;;;;234.73;63.63;;;;;;;;;;5098839;28;20447;-72
2022/04/11 04:41:50;;;;;;;245.85;64.50;;;;;;;;;;5098324;28;20926;-73
2022/04/11 04:44:19;;;;;;;235.33;66.40;;;;;;;;;;5098855;28;20208;-72
2022/04/11 04:46:47;;;;;;;245.90;63.77;;;;;;;;;;5098723;28;20444;-72
2022/04/11 04:49:15;;;;;;;228.48;62.80;;;;;;;;;;5098787;28;20495;-73
2022/04/11 04:51:42;;;;;;;258.83;66.78;;;;;;;;;;5098531;28;20244;-73
2022/04/11 04:54:10;;;;;;;258.85;64.65;;;;;;;;;;5098494;28;20274;-73
2022/04/11 04:56:39;;;;;;;240.05;62.85;;;;;;;;;;5098324;28;20262;-73
2022/04/11 04:59:07;;;;;;;218.73;65.10;;;;;;;;;;5097883;28;20193;-74
2022/04/11 05:01:37;;;;;;;254.40;71.38;;;;;;;;;;5097462;28;20507;-73
2022/04/11 05:04:05;;;;;;;258.77;65.47;;;;;;;;;;5097965;28;20476;-73
2022/04/11 05:06:34;;;;;;;248.98;64.03;;;;;;;;;;5097569;28;20204;-73
2022/04/11 05:09:02;;;;;;;255.93;68.53;;;;;;;;;;5097780;28;20204;-73
2022/04/11 05:11:29;;;;;;;254.53;66.50;;;;;;;;;;5097673;28;20225;-73
2022/04/11 05:13:57;;;;;;;245.43;64.60;;;;;;;;;;5098413;28;20747;-73
2022/04/11 05:16:25;;;;;;;251.10;68.23;;;;;;;;;;5097438;28;20448;-73
2022/04/11 05:18:54;;;;;;;262.10;67.43;;;;;;;;;;5096921;28;20460;-73
2022/04/11 05:21:22;;;;;;;242.63;63.47;;;;;;;;;;5097021;28;20459;-72
2022/04/11 05:23:53;;;;;;;249.47;66.83;;;;;;;;;;5097473;28;20692;-73
2022/04/11 05:26:23;;;;;;;255.27;68.20;;;;;;;;;;5097264;28;20880;-73
2022/04/11 05:28:53;;;;;;;272.13;70.37;;;;;;;;;;5097140;28;20234;-72
2022/04/11 05:31:21;;;;;;;254.57;66.10;;;;;;;;;;5096900;28;20458;-73
2022/04/11 05:33:50;;;;;;;265.35;70.70;;;;;;;;;;5097296;28;20460;-73
2022/04/11 05:36:19;;;;;;;268.65;71.88;;;;;;;;;;5096825;28;20815;-72
2022/04/11 05:38:48;;;;;;;248.73;68.40;;;;;;;;;;5097334;28;20224;-73
2022/04/11 05:41:19;;;;;;;281.63;71.25;;;;;;;;;;5097061;28;20455;-73
2022/04/11 05:43:50;;;;;;;281.63;77.93;;;;;;;;;;5097619;28;20198;-72
2022/04/11 05:46:22;;;;;;;290.05;73.07;;;;;;;;;;5096763;28;20443;-73
2022/04/11 05:48:51;;;;;;;270.57;69.50;;;;;;;;;;5096683;28;20289;-72
2022/04/11 05:51:26;;;;;;;268.17;69.70;;;;;;;;;;5096831;28;20452;-73
2022/04/11 05:53:53;;;;;;;275.73;70.97;;;;;;;;;;5095712;28;20486;-72
2022/04/11 05:56:25;;;;;;;270.52;69.40;;;;;;;;;;5084561;28;20466;-70
2022/04/11 05:58:52;;;;;;;287.38;72.75;;;;;;;;;;5076080;28;20575;-71
2022/04/11 06:01:20;;;;;;;284.03;74.27;;;;;;;;;;5084550;28;20251;-71
2022/04/11 06:03:48;;;;;;;280.17;74.23;;;;;;;;;;5095266;28;20544;-71
2022/04/11 06:06:18;;;;;;;269.80;70.90;;;;;;;;;;5095215;28;20451;-71
2022/04/11 06:08:47;;;;;;;259.77;69.73;;;;;;;;;;5095155;28;20448;-73
2022/04/11 06:11:17;;;;;;;276.57;75.33;;;;;;;;;;5095571;28;21078;-72
2022/04/11 06:13:47;;;;;;;290.23;76.22;;;;;;;;;;5095161;28;20448;-73
2022/04/11 06:16:15;;;;;;;272.23;73.40;;;;;;;;;;5095864;28;20228;-71
2022/04/11 06:18:43;;;;;;;276.60;77.80;;;;;;;;;;5095218;28;20917;-72
2022/04/11 06:21:11;;;;;;;235.20;67.97;;;;;;;;;;5094740;28;20490;-72
2022/04/11 06:23:42;;;;;;;264.80;70.57;;;;;;;;;;5095175;28;20893;-72
2022/04/11 06:26:11;;;;;;;277.87;76.57;;;;;;;;;;5095590;28;20452;-72
2022/04/11 06:28:41;;;;;;;269.23;70.93;;;;;;;;;;5095144;28;20517;-72
2022/04/11 06:31:09;;;;;;;299.43;77.67;;;;;;;;;;5094577;28;20478;-72
2022/04/11 06:33:37;;;;;;;293.47;79.83;;;;;;;;;;5094400;28;20470;-71
2022/04/11 06:36:09;;;;;;;267.63;75.60;;;;;;;;;;5095074;28;20459;-72
2022/04/11 06:38:43;;;;;;;261.27;77.67;;;;;;;;;;5094603;28;20492;-72
2022/04/11 06:41:14;;;;;;;286.37;80.90;;;;;;;;;;5095444;28;20462;-72
2022/04/11 06:43:45;;;;;;;282.50;82.53;;;;;;;;;;5094080;28;20541;-71
2022/04/11 06:46:19;;;;;;;254.40;74.90;;;;;;;;;;5096478;28;20553;-72
2022/04/11 06:48:47;;;;;;;258.07;73.40;;;;;;;;;;5094369;28;20459;-71
2022/04/11 06:51:16;;;;;;;262.30;74.73;;;;;;;;;;5095703;28;20455;-72
2022/04/11 06:53:44;;;;;;;264.20;84.30;;;;;;;;;;5094950;28;20443;-72
2022/04/11 06:56:13;;;;;;;268.50;80.60;;;;;;;;;;5087756;28;20460;-71
2022/04/11 06:58:40;;;;;;;283.63;89.07;;;;;;;;;;5077491;28;20513;-71
2022/04/11 07:01:08;;;;;;;261.17;80.97;;;;;;;;;;5106934;28;20448;-71
2022/04/11 07:03:36;;;;;;;275.70;88.90;;;;;;;;;;5095374;28;20487;-71
2022/04/11 07:06:04;;;;;;;274.40;81.77;;;;;;;;;;5095418;28;20793;-71
2022/04/11 07:08:31;;;;;;;267.63;85.57;;;;;;;;;;5094125;28;20466;-71
2022/04/11 07:10:59;;;;;;;264.00;85.27;;;;;;;;;;5095202;28;20509;-71
2022/04/11 07:13:33;;;;;;;272.27;83.67;;;;;;;;;;5094304;28;20538;-73
2022/04/11 07:16:02;;;;;;;281.73;92.90;;;;;;;;;;5094733;28;20452;-72
2022/04/11 07:18:36;;;;;;;290.00;90.00;;;;;;;;;;5093622;28;20750;-72
2022/04/11 07:21:10;;;;;;;287.67;86.90;;;;;;;;;;5092421;28;20781;-72
2022/04/11 07:23:43;;;;;;;268.13;84.67;;;;;;;;;;5093932;28;20498;-71
2022/04/11 07:26:13;;;;;;;295.00;88.97;;;;;;;;;;5091101;28;20989;-71
2022/04/11 07:28:44;;;;;;;286.47;81.07;;;;;;;;;;5088402;28;20883;-71
2022/04/11 07:31:12;;;;;;;289.90;91.67;;;;;;;;;;5082528;28;20466;-70
2022/04/11 07:33:47;;;;;;;295.33;89.80;;;;;;;;;;5093279;28;20880;-71
2022/04/11 07:36:28;;;;;;;297.87;92.23;;;;;;;;;;5089208;28;20597;-72
2022/04/11 07:38:57;;;;;;;293.83;94.13;;;;;;;;;;5074681;28;20700;-70
2022/04/11 07:41:27;;;;;;;318.00;93.47;;;;;;;;;;5085063;28;20749;-71
2022/04/11 07:43:58;;;;;;;318.60;97.77;;;;;;;;;;5083264;28;20746;-70
2022/04/11 07:46:25;;;;;;;330.87;102.10;;;;;;;;;;5092652;28;20767;-71
2022/04/11 07:48:53;;;;;;;316.20;98.00;;;;;;;;;;5093619;28;20718;-71
2022/04/11 07:51:21;;;;;;;313.03;97.67;;;;;;;;;;5093477;28;20869;-71
2022/04/11 07:53:53;;;;;;;332.40;99.47;;;;;;;;;;5094898;28;20871;-71
2022/04/11 07:56:22;;;;;;;311.70;97.17;;;;;;;;;;5092962;28;20455;-71
2022/04/11 07:58:50;;;;;;;309.10;96.10;;;;;;;;;;5079528;28;20464;-70
2022/04/11 08:01:24;;;;;;;317.80;96.23;;;;;;;;;;5084873;28;20501;-71
2022/04/11 08:03:52;;;;;;;321.30;100.53;;;;;;;;;;5082642;28;20552;-70
2022/04/11 08:06:20;;;;;;;329.40;96.70;;;;;;;;;;5088748;28;20862;-70
2022/04/11 08:08:49;;;;;;;325.07;97.87;;;;;;;;;;5085113;28;20489;-71
2022/04/11 08:11:19;;;;;;;311.47;98.73;;;;;;;;;;5098221;28;20883;-73
2022/04/11 08:13:47;;;;;;;296.13;100.93;;;;;;;;;;5083280;28;20475;-72
2022/04/11 08:16:15;;;;;;;291.37;95.80;;;;;;;;;;5078014;28;20458;-71
2022/04/11 08:18:45;;;;;;;318.17;97.13;;;;;;;;;;5077292;28;20440;-71
2022/04/11 08:21:13;;;;;;;291.93;97.20;;;;;;;;;;5091587;28;20542;-71
2022/04/11 08:23:56;;;;;;;314.03;94.50;;;;;;;;;;5097669;28;20589;-72
2022/04/11 08:26:28;;;;;;;321.97;96.57;;;;;;;;;;5097070;28;20859;-71
2022/04/11 08:28:56;;;;;;;315.27;98.77;;;;;;;;;;5095993;28;20460;-72
2022/04/11 08:31:31;;;;;;;302.33;97.77;;;;;;;;;;5097118;28;20444;-72
2022/04/11 08:34:01;;;;;;;297.13;100.90;;;;;;;;;;5097465;28;20460;-72
2022/04/11 08:36:30;;;;;;;312.83;98.50;;;;;;;;;;5093522;28;20540;-71
2022/04/11 08:39:00;;;;;;;309.47;109.53;;;;;;;;;;5097087;28;20444;-71
2022/04/11 08:41:29;;;;;;;309.43;106.73;;;;;;;;;;5096508;28;20900;-72
2022/04/11 08:43:57;;;;;;;322.57;111.10;;;;;;;;;;5099190;28;20511;-70
2022/04/11 08:46:26;;;;;;;347.73;102.50;;;;;;;;;;5095903;28;20489;-71
2022/04/11 08:48:54;;;;;;;313.47;107.63;;;;;;;;;;5096506;28;20532;-70
2022/04/11 08:51:26;;;;;;;342.23;104.13;;;;;;;;;;5088954;28;20813;-71
2022/04/11 08:53:54;;;;;;;353.90;103.80;;;;;;;;;;5100990;28;20705;-69
2022/04/11 08:56:23;;;;;;;354.90;110.00;;;;;;;;;;5097604;28;21044;-71
2022/04/11 08:58:56;;;;;;;315.93;101.00;;;;;;;;;;5084725;28;20530;-72
2022/04/11 09:01:28;;;;;;;321.07;105.43;;;;;;;;;;5096755;28;20447;-70
2022/04/11 09:03:56;;;;;;;312.87;107.50;;;;;;;;;;5094083;28;20574;-70
2022/04/11 09:06:37;;;;;;;317.37;113.40;;;;;;;;;;5089709;28;20459;-71
2022/04/11 09:09:15;;;;;;;305.00;116.43;;;;;;;;;;5077494;28;20464;-72
2022/04/11 09:11:49;;;;;;;290.50;108.60;;;;;;;;;;5096286;28;20455;-70
2022/04/11 09:14:19;;;;;;;305.10;109.13;;;;;;;;;;5092678;28;20489;-71
2022/04/11 09:16:53;;;;;;;299.50;113.20;;;;;;;;;;5090672;28;20471;-70
2022/04/11 09:19:25;;;;;;;303.87;111.53;;;;;;;;;;5095614;28;20539;-70
2022/04/11 09:21:58;;;;;;;301.73;108.03;;;;;;;;;;5095161;28;20763;-72
2022/04/11 09:24:29;;;;;;;318.80;108.07;;;;;;;;;;5095825;28;20491;-70
2022/04/11 09:27:00;;;;;;;301.70;113.40;;;;;;;;;;5099480;28;20444;-70
2022/04/11 09:29:28;;;;;;;295.37;102.97;;;;;;;;;;5091295;28;20517;-70
2022/04/11 09:32:05;;;;;;;323.93;116.27;;;;;;;;;;5097607;28;20443;-71
2022/04/11 09:34:33;;;;;;;315.70;115.50;;;;;;;;;;5094825;28;20447;-70
2022/04/11 09:37:02;;;;;;;340.33;127.23;;;;;;;;;;5095564;28;20529;-70
2022/04/11 09:39:44;;;;;;;327.10;120.80;;;;;;;;;;5097034;28;20444;-70
2022/04/11 09:42:16;;;;;;;320.17;115.33;;;;;;;;;;5095456;28;20443;-70
2022/04/11 09:44:44;;;;;;;337.07;121.37;;;;;;;;;;5095103;28;20479;-70
2022/04/11 09:47:14;;;;;;;309.90;113.40;;;;;;;;;;5095478;28;20451;-71
2022/04/11 09:49:47;;;;;;;330.60;126.37;;;;;;;;;;5089336;28;20469;-72
2022/04/11 09:52:22;;;;;;;333.23;121.67;;;;;;;;;;5095820;28;20466;-71
2022/04/11 09:54:52;;;;;;;333.00;128.83;;;;;;;;;;5094862;28;20463;-70
2022/04/11 09:57:20;;;;;;;344.00;132.33;;;;;;;;;;5094616;28;20459;-71
2022/04/11 09:59:50;;;;;;;311.03;128.27;;;;;;;;;;5092958;28;20486;-70
2022/04/11 10:02:19;;;;;;;357.37;129.73;;;;;;;;;;5079529;28;20531;-69
2022/04/11 10:04:50;;;;;;;335.20;119.23;;;;;;;;;;5080129;28;20484;-70
2022/04/11 10:07:24;;;;;;;337.37;122.10;;;;;;;;;;5079056;28;20452;-69
2022/04/11 10:10:08;;;;;;;339.40;131.13;;;;;;;;;;5088278;28;20742;-70
2022/04/11 10:12:46;;;;;;;332.03;117.93;;;;;;;;;;5086818;28;20706;-70
2022/04/11 10:15:29;;;;;;;331.03;137.40;;;;;;;;;;5079001;28;20471;-70
2022/04/11 10:18:07;;;;;;;318.73;118.83;;;;;;;;;;5094712;28;20462;-69
2022/04/11 10:20:54;;;;;;;326.83;138.07;;;;;;;;;;5091232;28;20497;-72
2022/04/11 10:23:30;;;;;;;339.13;132.87;;;;;;;;;;5093122;28;20487;-72
2022/04/11 10:25:59;;;;;;;327.53;117.53;;;;;;;;;;5087123;28;20444;-72
2022/04/11 10:28:32;;;;;;;340.37;138.03;;;;;;;;;;5075183;28;20486;-71
2022/04/11 10:31:10;;;;;;;336.60;131.83;;;;;;;;;;5077838;28;20443;-70
2022/04/11 10:33:55;;;;;;;333.37;129.33;;;;;;;;;;5091403;28;20457;-70
2022/04/11 10:36:28;;;;;;;340.30;136.87;;;;;;;;;;5095069;28;20443;-69
2022/04/11 10:39:15;;;;;;;348.87;139.80;;;;;;;;;;5092073;28;20454;-70
2022/04/11 10:42:05;;;;;;;322.93;132.03;;;;;;;;;;5075664;28;20524;-70
2022/04/11 10:44:41;;;;;;;335.73;127.30;;;;;;;;;;5080943;28;21212;-69
2022/04/11 10:47:41;;;;;;;331.63;146.10;;;;;;;;;;5094923;28;20447;-71
2022/04/11 10:50:31;;;;;;;361.53;129.17;;;;;;;;;;5096396;28;20459;-71
2022/04/11 10:53:14;;;;;;;373.07;133.93;;;;;;;;;;5083867;28;20533;-71
2022/04/11 10:56:05;;;;;;;355.77;122.40;;;;;;;;;;5073612;28;20448;-70
2022/04/11 10:58:47;;;;;;;335.87;126.80;;;;;;;;;;5063088;28;20609;-71
2022/04/11 11:01:20;;;;;;;370.43;143.27;;;;;;;;;;5097321;28;20459;-71
2022/04/11 11:04:06;;;;;;;378.05;157.50;;;;;;;;;;5092288;28;20464;-71
2022/04/11 11:06:38;;;;;;;361.27;134.93;;;;;;;;;;5092647;28;20516;-71
2022/04/11 11:09:18;;;;;;;330.90;135.97;;;;;;;;;;5092214;28;20459;-71
2022/04/11 11:11:55;;;;;;;325.33;145.47;;;;;;;;;;5092859;28;20451;-71
2022/04/11 11:14:45;;;;;;;336.47;135.70;;;;;;;;;;5092606;28;20489;-71
2022/04/11 11:17:22;;;;;;;329.60;126.00;;;;;;;;;;5077439;28;20563;-69
2022/04/11 11:20:09;;;;;;;296.27;127.17;;;;;;;;;;5091120;28;20851;-70
2022/04/11 11:23:10;;;;;;;326.50;134.83;;;;;;;;;;5097633;28;20449;-71
2022/04/11 11:25:39;;;;;;;339.43;124.13;;;;;;;;;;5073329;28;20455;-70
2022/04/11 11:28:09;;;;;;;339.10;129.93;;;;;;;;;;5073162;28;20467;-71
2022/04/11 11:30:40;;;;;;;358.97;131.37;;;;;;;;;;5073281;28;20433;-71
2022/04/11 11:33:14;;;;;;;348.73;137.77;;;;;;;;;;5092085;28;20452;-72
2022/04/11 11:35:51;;;;;;;356.80;126.83;;;;;;;;;;5093178;28;20949;-71
2022/04/11 11:38:24;;;;;;;367.93;138.67;;;;;;;;;;5079834;28;21071;-72
2022/04/11 11:40:56;;;;;;;379.87;138.33;;;;;;;;;;5086768;28;20457;-71
2022/04/11 11:43:36;;;;;;;330.03;124.93;;;;;;;;;;5112830;28;20442;-71
2022/04/11 11:46:07;;;;;;;306.70;134.20;;;;;;;;;;5116671;28;20478;-70
2022/04/11 11:48:42;;;;;;;324.37;140.80;;;;;;;;;;5099128;28;20789;-70
2022/04/11 11:51:10;;;;;;;330.57;134.17;;;;;;;;;;5096129;28;20774;-70
2022/04/11 11:53:50;;;;;;;338.60;143.47;;;;;;;;;;5094327;28;20444;-70
2022/04/11 11:56:22;;;;;;;337.83;135.17;;;;;;;;;;5096765;28;20487;-70
2022/04/11 11:58:53;;;;;;;344.13;133.47;;;;;;;;;;5098195;28;20476;-70
2022/04/11 12:01:30;;;;;;;346.37;142.43;;;;;;;;;;5097627;28;20452;-70
2022/04/11 12:06:57;;;;;;;343.07;139.30;;;;;;;;;;5098517;28;20455;-71
2022/04/11 12:09:36;;;;;;;343.90;132.30;;;;;;;;;;5089014;28;20881;-71
2022/04/11 12:12:11;;;;;;;340.10;124.43;;;;;;;;;;5091020;28;20525;-70
2022/04/11 12:15:03;;;;;;;373.60;137.00;;;;;;;;;;5096839;28;20903;-70
2022/04/11 12:17:37;;;;;;;345.00;120.53;;;;;;;;;;5085363;28;20795;-70
2022/04/11 12:20:14;;;;;;;347.57;145.97;;;;;;;;;;5097663;28;20451;-71
2022/04/11 12:22:43;;;;;;;367.77;139.87;;;;;;;;;;5096502;28;20708;-71
2022/04/11 12:25:29;;;;;;;375.43;139.87;;;;;;;;;;5095543;28;20484;-70
2022/04/11 12:28:18;;;;;;;361.20;141.20;;;;;;;;;;5075165;28;20747;-71
2022/04/11 12:31:18;;;;;;;330.77;145.33;;;;;;;;;;5079559;28;20460;-70
2022/04/11 12:33:55;;;;;;;336.40;135.30;;;;;;;;;;5100231;28;20936;-71
2022/04/11 12:36:27;;;;;;;314.77;137.60;;;;;;;;;;5112782;28;20565;-72
2022/04/11 12:39:17;;;;;;;364.17;146.13;;;;;;;;;;5088766;28;20803;-72
2022/04/11 12:44:49;;;;;;;333.40;160.67;;;;;;;;;;5094019;28;20898;-71
2022/04/11 12:47:25;;;;;;;347.97;149.10;;;;;;;;;;5090461;28;20457;-71
2022/04/11 12:50:02;;;;;;;363.73;156.87;;;;;;;;;;5075666;28;20459;-72
2022/04/11 12:52:42;;;;;;;357.07;143.90;;;;;;;;;;5083417;28;20498;-71
2022/04/11 12:55:10;;;;;;;331.27;159.73;;;;;;;;;;5084763;28;20452;-72
2022/04/11 12:57:39;;;;;;;361.07;174.90;;;;;;;;;;5091475;28;20465;-72
2022/04/11 13:00:14;;;;;;;368.83;163.13;;;;;;;;;;5094986;27;20532;-71
2022/04/11 13:02:41;;;;;;;371.40;155.03;;;;;;;;;;5089179;28;20459;-71
2022/04/11 13:05:17;;;;;;;371.47;148.97;;;;;;;;;;5086596;28;21037;-71
2022/04/11 13:08:01;;;;;;;372.57;151.83;;;;;;;;;;5084568;28;20487;-72
2022/04/11 13:10:39;;;;;;;382.00;153.00;;;;;;;;;;5078570;28;20455;-70
2022/04/11 13:13:07;;;;;;;384.93;152.80;;;;;;;;;;5078156;28;20782;-71
2022/04/11 13:18:23;;;;;;;387.67;156.77;;;;;;;;;;5095539;28;20516;-72
2022/04/11 13:18:26;;;;;;;365.43;139.33;;;;;;;;;;5087115;28;20456;-70
2022/04/11 13:21:13;;;;;;;382.27;151.93;;;;;;;;;;5084484;28;20445;-73
2022/04/11 13:23:50;;;;;;;380.77;153.10;;;;;;;;;;5076197;28;20456;-70
2022/04/11 13:26:33;;;;;;;373.50;142.60;;;;;;;;;;5076552;28;20444;-70
2022/04/11 13:29:01;;;;;;;373.03;149.63;;;;;;;;;;5081590;28;20461;-70
2022/04/11 13:31:39;;;;;;;357.50;143.57;;;;;;;;;;5096132;28;20440;-70
2022/04/11 13:34:10;;;;;;;370.10;150.07;;;;;;;;;;5092448;28;20504;-71
2022/04/11 13:36:40;;;;;;;367.87;154.63;;;;;;;;;;5078593;28;21184;-70
2022/04/11 13:39:10;;;;;;;373.90;160.13;;;;;;;;;;5077465;28;20453;-70
2022/04/11 13:41:37;;;;;;;355.97;156.73;;;;;;;;;;5096567;28;20969;-71
2022/04/11 13:44:06;;;;;;;343.83;166.67;;;;;;;;;;5095687;28;20798;-71
2022/04/11 13:46:36;;;;;;;324.90;173.00;;;;;;;;;;5095286;28;20452;-71
2022/04/11 13:49:04;;;;;;;344.73;153.27;;;;;;;;;;5094798;28;20521;-70
2022/04/11 13:51:33;;;;;;;369.23;153.23;;;;;;;;;;5091799;28;21100;-71
2022/04/11 13:54:04;;;;;;;371.30;174.00;;;;;;;;;;5096434;28;20546;-71
2022/04/11 13:56:45;;;;;;;364.83;161.10;;;;;;;;;;5094843;28;20479;-70
2022/04/11 13:59:16;;;;;;;381.20;162.27;;;;;;;;;;5094376;28;20458;-71
2022/04/11 14:01:57;;;;;;;367.50;161.70;;;;;;;;;;5093021;28;20870;-71
2022/04/11 14:04:32;;;;;;;373.93;151.97;;;;;;;;;;5094954;28;20624;-72
2022/04/11 14:07:11;;;;;;;372.37;146.07;;;;;;;;;;5093810;28;20497;-72
2022/04/11 14:09:41;;;;;;;355.43;152.77;;;;;;;;;;5096585;28;20505;-71
2022/04/11 14:12:36;;;;;;;366.10;162.33;;;;;;;;;;5076575;28;20484;-72
2022/04/11 14:15:11;;;;;;;348.37;172.13;;;;;;;;;;5083592;28;20540;-72
2022/04/11 14:17:42;;;;;;;342.27;187.63;;;;;;;;;;5085708;28;20491;-70
2022/04/11 14:20:15;;;;;;;342.77;152.70;;;;;;;;;;5095215;28;20915;-71
2022/04/11 14:22:43;;;;;;;357.37;161.07;;;;;;;;;;5095166;28;20459;-69
2022/04/11 14:25:11;;;;;;;348.80;148.40;;;;;;;;;;5107641;28;20475;-71
2022/04/11 14:27:38;;;;;;;347.47;149.07;;;;;;;;;;5114510;28;20447;-70
2022/04/11 14:32:50;;;;;;;347.17;146.70;;;;;;;;;;5093059;28;20466;-71
2022/04/11 14:35:18;;;;;;;343.17;140.77;;;;;;;;;;5115342;28;20920;-72
2022/04/11 14:37:49;;;;;;;333.30;154.83;;;;;;;;;;5105625;28;20454;-73